Ahlsell — OYZH — position and weather

sailwx.info

Track history (hours):
 
Tides and Currents Weather Stations Pressure Air Temp Water Temp Dewpoint Dewpoint Depression Visibility Wind Speed Wind Dir Waves Ship Positions

Ahlsell

Last reported at 2017-May-27 23:00 UTC. Time now 2017-May-27 22:59 UTC.
Position N 55°06' E 014°41'.

Length 40 m; draft 4 m.

Type: Dredging. MMSI: 219000852.

Date/timePositionNaut miles runAvg speedWind from/ knotsBaromVisibWave heightAir tempDewpointWater temp
2017-May-27 23:00N 55°06' E 014°41'0 0.0
2017-May-27 22:30N 55°06' E 014°41'0 0.0
2017-May-27 22:00N 55°06' E 014°41'0 0.0
2017-May-27 21:30N 55°06' E 014°41'0 0.0
2017-May-27 21:00N 55°06' E 014°41'0 0.0
2017-May-27 20:30N 55°06' E 014°41'0 0.0
2017-May-27 20:00N 55°06' E 014°41'0 0.0
2017-May-27 19:30N 55°06' E 014°41'0 0.0
2017-May-27 19:00N 55°06' E 014°41'0 0.0
2017-May-27 18:30N 55°06' E 014°41'0 0.0
2017-May-27 18:00N 55°06' E 014°41'0 0.0
2017-May-27 17:30N 55°06' E 014°41'0 0.0
2017-May-27 17:00N 55°06' E 014°41'0 0.0
2017-May-27 16:30N 55°06' E 014°41'0 0.0
2017-May-27 16:00N 55°06' E 014°41'0 0.0
2017-May-27 15:30N 55°06' E 014°41'0 0.0
2017-May-27 15:00N 55°06' E 014°41'0 0.0
2017-May-27 14:00N 55°06' E 014°41'0 0.0
2017-May-27 13:30N 55°06' E 014°41'0 0.0
2017-May-27 13:00N 55°06' E 014°41'0 0.0
2017-May-27 12:30N 55°06' E 014°41'0 0.0
2017-May-27 12:00N 55°06' E 014°41'0 0.0
2017-May-27 11:30N 55°06' E 014°41'0 0.0
2017-May-27 11:00N 55°06' E 014°41'0 0.0
2017-May-27 10:30N 55°06' E 014°41'0 0.0
2017-May-27 10:00N 55°06' E 014°41'0 0.0
2017-May-27 09:30N 55°06' E 014°41'0 0.0
2017-May-27 09:00N 55°06' E 014°41'0 0.0
2017-May-27 08:30N 55°06' E 014°41'0 0.0
2017-May-27 08:00N 55°06' E 014°41'0 0.0
2017-May-27 07:30N 55°06' E 014°41'0 0.0
2017-May-27 07:00N 55°06' E 014°41'0 0.0
2017-May-27 06:30N 55°06' E 014°41'0 0.0
2017-May-27 06:01N 55°06' E 014°41'0 0.0
2017-May-27 05:30N 55°06' E 014°41'0 0.1
2017-May-27 05:00N 55°06' E 014°41'0 0.0
2017-May-27 04:30N 55°06' E 014°41'0 0.0
2017-May-27 04:00N 55°06' E 014°41'0 0.0
2017-May-27 03:30N 55°06' E 014°41'1 2.1
2017-May-27 03:00N 55°05' E 014°41'4 7.6
2017-May-27 02:30N 55°02' E 014°45'4 7.3
2017-May-27 02:00N 54°59' E 014°48'2 4.1
2017-May-27 01:30N 54°57' E 014°51'0 0.2
2017-May-27 01:00N 54°57' E 014°50'4 7.8
2017-May-27 00:30N 55°00' E 014°46'4 7.6
2017-May-27 00:00N 55°03' E 014°42'3 5.2
2017-May-26 23:30N 55°06' E 014°41'0 0.0
2017-May-26 23:00N 55°06' E 014°41'0 0.0
2017-May-26 22:30N 55°06' E 014°41'0 0.0
2017-May-26 22:00N 55°06' E 014°41'0 0.2
2017-May-26 21:30N 55°06' E 014°41'3 6.9
2017-May-26 21:00N 55°03' E 014°43'4 7.5
2017-May-26 20:30N 54°59' E 014°47'4 7.2
2017-May-26 20:00N 54°56' E 014°50'0 0.5
2017-May-26 19:30N 54°56' E 014°50'0 0.0
2017-May-26 19:00N 54°56' E 014°50'2 4.3
2017-May-26 18:30N 54°58' E 014°48'4 7.8
2017-May-26 18:00N 55°01' E 014°44'4 7.7
2017-May-26 17:30N 55°05' E 014°41'1 2.4
2017-May-26 17:00N 55°06' E 014°41'0 0.0
2017-May-26 16:30N 55°06' E 014°41'0 0.0
2017-May-26 16:00N 55°06' E 014°41'0 0.0
2017-May-26 15:30N 55°06' E 014°41'1 1.2
2017-May-26 15:00N 55°05' E 014°41'3 5.6
2017-May-26 14:30N 55°03' E 014°43'7 6.8
2017-May-26 13:30N 54°57' E 014°49'1 1.9
2017-May-26 13:00N 54°56' E 014°50'0 0.0
2017-May-26 12:30N 54°56' E 014°50'2 4.5
2017-May-26 12:00N 54°58' E 014°48'4 8.1
2017-May-26 11:30N 55°02' E 014°44'4 8.2
2017-May-26 11:00N 55°05' E 014°41'1 1.5
2017-May-26 10:30N 55°06' E 014°41'0 0.0
2017-May-26 10:00N 55°06' E 014°41'0 0.0
2017-May-26 09:30N 55°06' E 014°41'0 0.0
2017-May-26 09:01N 55°06' E 014°41'3 5.9
2017-May-26 08:30N 55°03' E 014°42'4 7.1
2017-May-26 08:00N 54°60' E 014°45'3 7.0
2017-May-26 07:30N 54°57' E 014°49'1 2.2
2017-May-26 07:00N 54°56' E 014°50'0 0.0
2017-May-26 06:30N 54°56' E 014°50'3 5.1
2017-May-26 06:00N 54°58' E 014°48'4 7.6
2017-May-26 05:30N 55°01' E 014°44'4 7.8
2017-May-26 05:00N 55°05' E 014°41'1 1.9
2017-May-26 04:30N 55°06' E 014°41'0 0.0
2017-May-26 04:00N 55°06' E 014°41'0 0.0
2017-May-26 03:30N 55°06' E 014°41'0 0.0
2017-May-26 03:00N 55°06' E 014°41'2 3.5
2017-May-26 02:30N 55°04' E 014°42'3 6.7
2017-May-26 02:00N 55°01' E 014°45'3 6.6
2017-May-26 01:30N 54°59' E 014°48'2 4.1
2017-May-26 01:00N 54°57' E 014°50'0 0.0
2017-May-26 00:30N 54°57' E 014°51'3 5.3
2017-May-26 00:00N 54°59' E 014°48'4 8.0
2017-May-25 23:30N 55°02' E 014°43'4 7.2
2017-May-25 23:00N 55°06' E 014°41'0 0.4
2017-May-25 22:30N 55°06' E 014°41'0 0.0
2017-May-25 22:00N 55°06' E 014°41'0 0.0
2017-May-25 21:30N 55°06' E 014°41'1 1.2
2017-May-25 21:01N 55°05' E 014°41'3 5.9
2017-May-25 20:30N 55°03' E 014°41'0 0.8
2017-May-25 20:00N 55°02' E 014°41'0 0.0
2017-May-25 19:30N 55°02' E 014°41'0 0.0
2017-May-25 19:00N 55°02' E 014°41'0 0.0
2017-May-25 18:30N 55°02' E 014°41'0 0.0
2017-May-25 18:01N 55°02' E 014°41'0 0.0
2017-May-25 17:30N 55°02' E 014°41'1 1.2
2017-May-25 17:00N 55°03' E 014°41'3 6.5
2017-May-25 16:30N 55°06' E 014°41'0 0.0
2017-May-25 16:00N 55°06' E 014°41'0 0.0
2017-May-25 15:30N 55°06' E 014°41'0 0.0
2017-May-25 15:00N 55°06' E 014°41'2 2.0
2017-May-25 14:00N 55°04' E 014°41'2 3.7
2017-May-25 13:30N 55°02' E 014°41'0 0.0
2017-May-25 13:00N 55°02' E 014°41'0 0.0
2017-May-25 12:30N 55°02' E 014°41'0 0.0
2017-May-25 12:00N 55°02' E 014°41'0 0.0
2017-May-25 11:30N 55°02' E 014°41'1 1.5
2017-May-25 11:00N 55°03' E 014°41'3 6.2
2017-May-25 10:30N 55°06' E 014°41'0 0.0
2017-May-25 10:00N 55°06' E 014°41'0 0.0
2017-May-25 09:30N 55°06' E 014°41'0 0.0
2017-May-25 09:00N 55°06' E 014°41'1 2.8
2017-May-25 08:30N 55°05' E 014°41'2 5.0
2017-May-25 08:00N 55°02' E 014°41'0 0.0
2017-May-25 07:30N 55°02' E 014°41'0 0.0
2017-May-25 07:00N 55°02' E 014°41'0 0.0
2017-May-25 06:30N 55°02' E 014°41'0 0.0
2017-May-25 06:01N 55°02' E 014°41'0 0.0
2017-May-25 05:30N 55°02' E 014°41'3 5.6
2017-May-25 05:00N 55°05' E 014°41'1 2.2
2017-May-25 04:30N 55°06' E 014°41'0 0.0
2017-May-25 04:00N 55°06' E 014°41'0 0.0
2017-May-25 03:30N 55°06' E 014°41'0 0.6
2017-May-25 03:01N 55°06' E 014°41'3 6.5
2017-May-25 02:30N 55°02' E 014°41'0 0.6
2017-May-25 02:00N 55°02' E 014°41'0 0.0
2017-May-25 01:30N 55°02' E 014°41'0 0.0
2017-May-25 01:01N 55°02' E 014°41'0 0.0
2017-May-25 00:30N 55°02' E 014°41'0 0.0
2017-May-25 00:00N 55°02' E 014°41'0 0.0
2017-May-24 23:30N 55°02' E 014°41'0 0.0
2017-May-24 23:00N 55°02' E 014°41'3 5.8
2017-May-24 22:30N 55°05' E 014°41'1 2.0
2017-May-24 22:00N 55°06' E 014°41'0 0.0
2017-May-24 21:30N 55°06' E 014°41'0 0.0
2017-May-24 21:00N 55°06' E 014°41'0 0.0
2017-May-24 20:30N 55°06' E 014°41'3 5.2
2017-May-24 20:00N 55°03' E 014°41'1 2.4
2017-May-24 19:30N 55°02' E 014°41'0 0.0
2017-May-24 19:00N 55°02' E 014°41'0 0.0
2017-May-24 18:30N 55°02' E 014°41'0 0.0
2017-May-24 18:00N 55°02' E 014°41'0 0.0
2017-May-24 17:30N 55°02' E 014°41'0 0.0
2017-May-24 17:00N 55°02' E 014°41'4 7.1
2017-May-24 16:30N 55°06' E 014°41'0 0.6
2017-May-24 16:00N 55°06' E 014°41'0 0.0
2017-May-24 15:30N 55°06' E 014°41'0 0.0
2017-May-24 15:01N 55°06' E 014°41'0 0.0
2017-May-24 14:30N 55°06' E 014°41'4 3.8
2017-May-24 13:30N 55°02' E 014°41'0 0.2
2017-May-24 13:00N 55°02' E 014°41'0 0.0
2017-May-24 12:30N 55°02' E 014°41'0 0.0
2017-May-24 12:00N 55°02' E 014°41'0 0.0
2017-May-24 11:30N 55°02' E 014°41'0 0.0
2017-May-24 11:00N 55°02' E 014°41'0 0.0
2017-May-24 10:30N 55°02' E 014°41'3 5.0
2017-May-24 10:00N 55°05' E 014°41'1 2.7
2017-May-24 09:30N 55°06' E 014°41'0 0.0
2017-May-24 09:00N 55°06' E 014°41'0 0.0
2017-May-24 08:30N 55°06' E 014°41'0 0.0
2017-May-24 08:00N 55°06' E 014°41'2 4.0
2017-May-24 07:30N 55°04' E 014°41'2 3.6
2017-May-24 07:00N 55°02' E 014°41'0 0.0
2017-May-24 06:30N 55°02' E 014°41'0 0.0
2017-May-24 06:00N 55°02' E 014°41'0 0.0
2017-May-24 05:30N 55°02' E 014°41'0 0.0
2017-May-24 05:00N 55°02' E 014°41'0 0.0
2017-May-24 04:30N 55°02' E 014°41'3 6.6
2017-May-24 04:00N 55°05' E 014°41'1 1.2
2017-May-24 03:30N 55°06' E 014°41'0 0.0
2017-May-24 03:00N 55°06' E 014°41'0 0.0
2017-May-24 02:30N 55°06' E 014°41'0 0.0
2017-May-24 02:00N 55°06' E 014°41'3 6.0
2017-May-24 01:30N 55°03' E 014°41'1 1.6
2017-May-24 01:00N 55°02' E 014°41'0 0.0
2017-May-24 00:30N 55°02' E 014°41'0 0.0
2017-May-24 00:00N 55°02' E 014°41'0 0.0
2017-May-23 23:30N 55°02' E 014°41'0 0.0
2017-May-23 23:00N 55°02' E 014°41'0 0.0
2017-May-23 22:31N 55°02' E 014°41'3 6.8
2017-May-23 22:01N 55°06' E 014°41'1 1.1
2017-May-23 21:30N 55°06' E 014°41'0 0.0
2017-May-23 21:00N 55°06' E 014°41'0 0.0
2017-May-23 20:30N 55°06' E 014°41'0 0.1
2017-May-23 20:00N 55°06' E 014°41'4 7.1
2017-May-23 19:30N 55°02' E 014°41'0 0.5
2017-May-23 19:01N 55°02' E 014°41'0 0.1
2017-May-23 18:30N 55°02' E 014°41'0 0.0
2017-May-23 18:00N 55°02' E 014°41'0 0.0
2017-May-23 17:30N 55°02' E 014°41'0 0.0
2017-May-23 17:00N 55°02' E 014°41'0 0.0
2017-May-23 16:30N 55°02' E 014°41'0 0.0
2017-May-23 16:00N 55°02' E 014°41'1 2.2
2017-May-23 15:30N 55°03' E 014°41'3 5.4
2017-May-23 15:00N 55°06' E 014°41'0 0.0
2017-May-23 14:30N 55°06' E 014°41'0 0.0
2017-May-23 13:30N 55°06' E 014°41'2 3.9
2017-May-23 13:00N 55°04' E 014°41'2 3.8
2017-May-23 12:30N 55°02' E 014°41'0 0.0
2017-May-23 12:00N 55°02' E 014°41'0 0.0
2017-May-23 11:30N 55°02' E 014°41'0 0.1
2017-May-23 11:00N 55°02' E 014°41'0 0.0
2017-May-23 10:30N 55°02' E 014°41'0 0.0
2017-May-23 10:00N 55°02' E 014°41'0 0.0
2017-May-23 09:30N 55°02' E 014°41'0 0.0
2017-May-23 09:00N 55°02' E 014°41'1 1.5
2017-May-23 08:30N 55°03' E 014°41'3 6.2
2017-May-23 08:00N 55°06' E 014°41'0 0.0
2017-May-23 07:30N 55°06' E 014°41'0 0.0
2017-May-23 07:00N 55°06' E 014°41'0 0.0
2017-May-23 06:30N 55°06' E 014°41'2 3.0
2017-May-23 06:00N 55°04' E 014°41'2 4.6
2017-May-23 05:30N 55°02' E 014°41'0 0.0
2017-May-23 05:00N 55°02' E 014°41'0 0.0
2017-May-23 04:31N 55°02' E 014°41'0 0.0
2017-May-23 04:01N 55°02' E 014°41'0 0.0
2017-May-23 03:30N 55°02' E 014°41'0 0.0
2017-May-23 03:01N 55°02' E 014°41'0 0.0
2017-May-23 02:30N 55°02' E 014°41'0 0.0
2017-May-23 02:00N 55°02' E 014°41'0 0.4
2017-May-23 01:30N 55°02' E 014°41'3 6.9
2017-May-23 01:01N 55°06' E 014°41'0 0.3
2017-May-23 00:30N 55°06' E 014°41'0 0.0
2017-May-23 00:00N 55°06' E 014°41'0 0.0
2017-May-22 23:30N 55°06' E 014°41'1 1.2
2017-May-22 23:01N 55°05' E 014°41'3 6.6
2017-May-22 22:30N 55°02' E 014°41'0 0.0
2017-May-22 22:00N 55°02' E 014°41'0 0.0
2017-May-22 21:30N 55°02' E 014°41'0 0.0
2017-May-22 21:00N 55°02' E 014°41'0 0.0
2017-May-22 20:30N 55°02' E 014°41'0 0.0
2017-May-22 20:00N 55°02' E 014°41'1 2.7
2017-May-22 19:30N 55°04' E 014°41'2 4.9
2017-May-22 19:00N 55°06' E 014°41'0 0.0
2017-May-22 18:30N 55°06' E 014°41'0 0.0
2017-May-22 18:00N 55°06' E 014°41'0 0.0
2017-May-22 17:30N 55°06' E 014°41'1 2.1
2017-May-22 17:00N 55°05' E 014°41'3 5.7
2017-May-22 16:30N 55°02' E 014°41'0 0.0
2017-May-22 16:00N 55°02' E 014°41'0 0.0
2017-May-22 15:30N 55°02' E 014°41'0 0.0
2017-May-22 15:00N 55°02' E 014°41'0 0.0
2017-May-22 14:01N 55°02' E 014°41'3 6.9
2017-May-22 13:30N 55°06' E 014°41'1 1.0
2017-May-22 13:00N 55°06' E 014°41'0 0.0
2017-May-22 12:30N 55°06' E 014°41'0 0.0
2017-May-22 12:00N 55°06' E 014°41'1 1.5
2017-May-22 11:30N 55°05' E 014°41'3 6.3
2017-May-22 11:00N 55°02' E 014°41'0 0.0
2017-May-22 10:30N 55°02' E 014°41'0 0.0
2017-May-22 10:00N 55°02' E 014°41'0 0.0
2017-May-22 09:30N 55°02' E 014°41'0 0.0
2017-May-22 09:00N 55°02' E 014°41'0 0.0
2017-May-22 08:31N 55°02' E 014°41'0 0.1
2017-May-22 08:01N 55°02' E 014°41'0 0.0
2017-May-22 07:30N 55°02' E 014°41'3 5.9
2017-May-22 07:00N 55°05' E 014°41'1 1.9
2017-May-22 06:30N 55°06' E 014°41'0 0.0
2017-May-22 06:01N 55°06' E 014°41'0 0.0
2017-May-22 05:30N 55°06' E 014°41'0 0.0
2017-May-22 05:00N 55°06' E 014°41'0 0.0
2017-May-22 04:31N 55°06' E 014°41'0 0.0
2017-May-22 04:00N 55°06' E 014°41'0 0.0
2017-May-22 03:30N 55°06' E 014°41'0 0.0
2017-May-22 03:00N 55°06' E 014°41'0 0.0
2017-May-22 02:30N 55°06' E 014°41'0 0.0
2017-May-22 02:00N 55°06' E 014°41'0 0.0
2017-May-22 01:30N 55°06' E 014°41'0 0.0
2017-May-22 01:00N 55°06' E 014°41'0 0.0
2017-May-22 00:30N 55°06' E 014°41'0 0.0
2017-May-22 00:00N 55°06' E 014°41'0 0.0
2017-May-21 23:30N 55°06' E 014°41'0 0.0
2017-May-21 23:00N 55°06' E 014°41'0 0.0
2017-May-21 22:30N 55°06' E 014°41'0 0.0
2017-May-21 22:00N 55°06' E 014°41'0 0.0
2017-May-21 21:30N 55°06' E 014°41'0 0.0
2017-May-21 21:00N 55°06' E 014°41'0 0.0
2017-May-21 20:30N 55°06' E 014°41'0 0.0
2017-May-21 20:00N 55°06' E 014°41'0 0.0
2017-May-21 19:30N 55°06' E 014°41'0 0.0
2017-May-21 19:00N 55°06' E 014°41'0 0.0
2017-May-21 18:30N 55°06' E 014°41'0 0.0
2017-May-21 18:00N 55°06' E 014°41'0 0.0
2017-May-21 17:30N 55°06' E 014°41'0 0.0
2017-May-21 17:00N 55°06' E 014°41'0 0.0
2017-May-21 16:30N 55°06' E 014°41'0 0.0
2017-May-21 16:00N 55°06' E 014°41'0 0.0
2017-May-21 15:30N 55°06' E 014°41'0 0.0
2017-May-21 15:00N 55°06' E 014°41'0 0.0
2017-May-21 14:00N 55°06' E 014°41'0 0.0
2017-May-21 13:30N 55°06' E 014°41'0 0.0
2017-May-21 13:00N 55°06' E 014°41'0 0.0
2017-May-21 12:30N 55°06' E 014°41'0 0.0
2017-May-21 12:00N 55°06' E 014°41'0 0.0
2017-May-21 11:30N 55°06' E 014°41'0 0.0
2017-May-21 11:00N 55°06' E 014°41'0 0.0
2017-May-21 10:30N 55°06' E 014°41'0 0.0
2017-May-21 10:00N 55°06' E 014°41'0 0.0
2017-May-21 09:30N 55°06' E 014°41'0 0.0
2017-May-21 09:00N 55°06' E 014°41'0 0.0
2017-May-21 08:30N 55°06' E 014°41'0 0.0
2017-May-21 08:00N 55°06' E 014°41'0 0.0
2017-May-21 07:30N 55°06' E 014°41'0 0.0
2017-May-21 07:00N 55°06' E 014°41'0 0.0
2017-May-21 06:30N 55°06' E 014°41'0 0.0
2017-May-21 06:00N 55°06' E 014°41'0 0.0
2017-May-21 05:30N 55°06' E 014°41'0 0.0
2017-May-21 05:00N 55°06' E 014°41'0 0.0
2017-May-21 04:30N 55°06' E 014°41'0 0.0
2017-May-21 04:00N 55°06' E 014°41'0 0.0
2017-May-21 03:30N 55°06' E 014°41'0 0.0
2017-May-21 03:00N 55°06' E 014°41'0 0.0
2017-May-21 02:30N 55°06' E 014°41'0 0.0
2017-May-21 02:00N 55°06' E 014°41'0 0.0
2017-May-21 01:30N 55°06' E 014°41'0 0.0
2017-May-21 01:00N 55°06' E 014°41'0 0.0
2017-May-21 00:30N 55°06' E 014°41'0 0.0
2017-May-21 00:00N 55°06' E 014°41'0 0.0
2017-May-20 23:30N 55°06' E 014°41'0 0.0
2017-May-20 23:00N 55°06' E 014°41'0 0.0
2017-May-20 22:30N 55°06' E 014°41'0 0.0
2017-May-20 22:00N 55°06' E 014°41'0 0.0
2017-May-20 21:30N 55°06' E 014°41'0 0.0
2017-May-20 21:00N 55°06' E 014°41'0 0.0
2017-May-20 20:30N 55°06' E 014°41'0 0.0
2017-May-20 20:00N 55°06' E 014°41'0 0.0
2017-May-20 19:30N 55°06' E 014°41'0 0.0
2017-May-20 19:00N 55°06' E 014°41'0 0.0
2017-May-20 18:30N 55°06' E 014°41'0 0.0
2017-May-20 18:00N 55°06' E 014°41'0 0.0
2017-May-20 17:30N 55°06' E 014°41'0 0.0
2017-May-20 17:00N 55°06' E 014°41'0 0.0
2017-May-20 16:30N 55°06' E 014°41'0 0.0
2017-May-20 16:00N 55°06' E 014°41'0 0.0
2017-May-20 15:30N 55°06' E 014°41'0 0.0
2017-May-20 15:00N 55°06' E 014°41'0 0.0
2017-May-20 14:30N 55°06' E 014°41'0 0.0
2017-May-20 13:30N 55°06' E 014°41'0 0.0
2017-May-20 13:00N 55°06' E 014°41'0 0.0
2017-May-20 12:30N 55°06' E 014°41'0 0.0
2017-May-20 12:00N 55°06' E 014°41'0 0.0
2017-May-20 11:30N 55°06' E 014°41'0 0.0
2017-May-20 11:00N 55°06' E 014°41'0 0.0
2017-May-20 10:30N 55°06' E 014°41'0 0.0
2017-May-20 10:00N 55°06' E 014°41'0 0.0
2017-May-20 09:30N 55°06' E 014°41'0 0.0
2017-May-20 09:00N 55°06' E 014°41'0 0.0
2017-May-20 08:30N 55°06' E 014°41'0 0.0
2017-May-20 08:00N 55°06' E 014°41'0 0.0
2017-May-20 07:30N 55°06' E 014°41'0 0.0
2017-May-20 07:00N 55°06' E 014°41'0 0.0
2017-May-20 06:30N 55°06' E 014°41'0 0.0
2017-May-20 06:00N 55°06' E 014°41'0 0.0
2017-May-20 05:30N 55°06' E 014°41'0 0.0
2017-May-20 05:00N 55°06' E 014°41'3 5.4
2017-May-20 04:30N 55°03' E 014°40'1 1.9
2017-May-20 04:00N 55°02' E 014°41'0 0.0
2017-May-20 03:30N 55°02' E 014°41'0 0.0
2017-May-20 03:00N 55°02' E 014°41'0 0.0
2017-May-20 02:30N 55°02' E 014°41'0 0.0
2017-May-20 02:00N 55°02' E 014°41'0 0.0
2017-May-20 01:30N 55°02' E 014°41'0 0.0
2017-May-20 01:00N 55°02' E 014°41'0 0.0
2017-May-20 00:30N 55°02' E 014°41'0 0.0
2017-May-20 00:00N 55°02' E 014°41'1 1.6
2017-May-19 23:30N 55°03' E 014°41'3 5.7
2017-May-19 23:00N 55°06' E 014°41'0 0.0
2017-May-19 22:30N 55°06' E 014°41'0 0.0
2017-May-19 22:00N 55°06' E 014°41'0 0.0
2017-May-19 21:30N 55°06' E 014°41'0 0.8
2017-May-19 21:00N 55°06' E 014°41'3 6.8
2017-May-19 20:30N 55°02' E 014°41'0 0.0
2017-May-19 20:00N 55°02' E 014°41'0 0.0
2017-May-19 19:30N 55°02' E 014°41'0 0.0
2017-May-19 19:00N 55°02' E 014°41'0 0.0
2017-May-19 18:31N 55°02' E 014°41'0 0.1
2017-May-19 18:00N 55°02' E 014°41'0 0.0
2017-May-19 17:30N 55°02' E 014°41'0 0.0
2017-May-19 17:00N 55°02' E 014°41'0 0.0
2017-May-19 16:31N 55°02' E 014°41'3 6.6
2017-May-19 16:01N 55°06' E 014°41'0 0.9
2017-May-19 15:30N 55°06' E 014°41'0 0.0
2017-May-19 15:00N 55°06' E 014°41'0 0.0
2017-May-19 14:01N 55°06' E 014°41'0 0.0
2017-May-19 13:30N 55°06' E 014°41'1 2.0
2017-May-19 13:00N 55°05' E 014°41'3 5.3
2017-May-19 12:30N 55°02' E 014°41'0 0.0
2017-May-19 12:00N 55°02' E 014°41'0 0.1
2017-May-19 11:31N 55°02' E 014°41'0 0.0
2017-May-19 11:00N 55°02' E 014°41'0 0.0
2017-May-19 10:30N 55°02' E 014°41'0 0.0
2017-May-19 10:00N 55°02' E 014°41'0 0.0
2017-May-19 09:30N 55°02' E 014°41'2 3.7
2017-May-19 09:00N 55°04' E 014°41'2 3.7
2017-May-19 08:30N 55°06' E 014°41'0 0.0
2017-May-19 08:00N 55°06' E 014°41'0 0.0
2017-May-19 07:30N 55°06' E 014°41'0 0.0
2017-May-19 07:00N 55°06' E 014°41'0 0.0
2017-May-19 06:30N 55°06' E 014°41'0 0.0
2017-May-19 06:00N 55°06' E 014°41'0 0.0
2017-May-19 05:30N 55°06' E 014°41'0 0.1
2017-May-19 05:00N 55°06' E 014°41'0 0.0
2017-May-19 04:30N 55°06' E 014°41'0 0.0
2017-May-19 04:00N 55°06' E 014°41'0 0.0
2017-May-19 03:30N 55°06' E 014°41'0 0.0
2017-May-19 03:00N 55°06' E 014°41'0 0.0
2017-May-19 02:30N 55°06' E 014°41'0 0.2
2017-May-19 02:00N 55°06' E 014°41'0 0.0
2017-May-19 01:30N 55°06' E 014°41'0 0.0
2017-May-19 01:00N 55°06' E 014°41'0 0.0
2017-May-19 00:30N 55°06' E 014°41'3 5.3
2017-May-19 00:00N 55°03' E 014°40'1 2.1
2017-May-18 23:30N 55°02' E 014°41'0 0.0
2017-May-18 23:00N 55°02' E 014°41'0 0.0
2017-May-18 22:30N 55°02' E 014°41'0 0.0
2017-May-18 22:00N 55°02' E 014°41'0 0.0
2017-May-18 21:30N 55°02' E 014°41'0 0.0
2017-May-18 21:00N 55°02' E 014°41'0 0.0
2017-May-18 20:30N 55°02' E 014°41'0 0.0
2017-May-18 20:00N 55°02' E 014°41'0 0.0
2017-May-18 19:30N 55°02' E 014°41'1 1.5
2017-May-18 19:00N 55°03' E 014°41'3 5.9
2017-May-18 18:30N 55°06' E 014°41'0 0.0
2017-May-18 18:00N 55°06' E 014°41'0 0.0
2017-May-18 17:30N 55°06' E 014°41'0 0.0
2017-May-18 17:00N 55°06' E 014°41'2 4.2
2017-May-18 16:30N 55°04' E 014°40'1 2.6
2017-May-18 16:00N 55°03' E 014°41'0 0.0
2017-May-18 15:30N 55°03' E 014°41'0 0.0
2017-May-18 15:00N 55°03' E 014°41'0 0.3
2017-May-18 14:00N 55°03' E 014°41'3 6.1
2017-May-18 13:30N 55°06' E 014°41'0 0.0
2017-May-18 13:00N 55°06' E 014°41'0 0.0
2017-May-18 12:30N 55°06' E 014°41'0 0.0
2017-May-18 12:00N 55°06' E 014°41'0 0.3
2017-May-18 11:30N 55°06' E 014°41'3 6.8
2017-May-18 11:01N 55°03' E 014°38'3 5.3
2017-May-18 10:30N 55°01' E 014°36'0 0.0
2017-May-18 10:00N 55°01' E 014°35'0 0.0
2017-May-18 09:30N 55°01' E 014°35'2 4.5
2017-May-18 09:00N 55°03' E 014°37'4 7.8
2017-May-18 08:30N 55°06' E 014°41'0 0.2
2017-May-18 08:00N 55°06' E 014°41'0 0.0
2017-May-18 07:30N 55°06' E 014°41'0 0.0
2017-May-18 07:00N 55°06' E 014°41'0 0.0
2017-May-18 06:30N 55°06' E 014°41'1 1.7
2017-May-18 06:00N 55°05' E 014°40'3 5.3
2017-May-18 05:31N 55°03' E 014°41'0 0.0
2017-May-18 05:01N 55°03' E 014°41'0 0.0
2017-May-18 04:30N 55°03' E 014°41'0 0.0
2017-May-18 04:00N 55°03' E 014°41'0 0.0
2017-May-18 03:30N 55°03' E 014°41'0 0.0
2017-May-18 03:00N 55°03' E 014°41'0 0.1
2017-May-18 02:30N 55°03' E 014°41'0 0.1
2017-May-18 02:00N 55°03' E 014°41'0 0.0
2017-May-18 01:30N 55°03' E 014°41'0 0.0
2017-May-18 01:00N 55°03' E 014°41'2 3.6
2017-May-18 00:30N 55°04' E 014°41'2 3.2
2017-May-18 00:00N 55°06' E 014°41'0 0.0
2017-May-17 23:30N 55°06' E 014°41'0 0.0
2017-May-17 23:00N 55°06' E 014°41'0 0.0
2017-May-17 22:30N 55°06' E 014°41'  
Track history (hours):
 
Tides and Currents Weather Stations Pressure Air Temp Water Temp Dewpoint Dewpoint Depression Visibility Wind Speed Wind Dir Waves Ship Positions

Ahlsell

Last reported at 2017-May-27 23:00 UTC. Time now 2017-May-27 22:59 UTC.
Position N 55°06' E 014°41'.

Length 40 m; draft 4 m.

Type: Dredging. MMSI: 219000852.

Date/timePositionNaut miles runAvg speedWind from/ knotsBaromVisibWave heightAir tempDewpointWater temp
2017-May-27 23:00N 55°06' E 014°41'0 0.0
2017-May-27 22:30N 55°06' E 014°41'0 0.0
2017-May-27 22:00N 55°06' E 014°41'0 0.0
2017-May-27 21:30N 55°06' E 014°41'0 0.0
2017-May-27 21:00N 55°06' E 014°41'0 0.0
2017-May-27 20:30N 55°06' E 014°41'0 0.0
2017-May-27 20:00N 55°06' E 014°41'0 0.0
2017-May-27 19:30N 55°06' E 014°41'0 0.0
2017-May-27 19:00N 55°06' E 014°41'0 0.0
2017-May-27 18:30N 55°06' E 014°41'0 0.0
2017-May-27 18:00N 55°06' E 014°41'0 0.0
2017-May-27 17:30N 55°06' E 014°41'0 0.0
2017-May-27 17:00N 55°06' E 014°41'0 0.0
2017-May-27 16:30N 55°06' E 014°41'0 0.0
2017-May-27 16:00N 55°06' E 014°41'0 0.0
2017-May-27 15:30N 55°06' E 014°41'0 0.0
2017-May-27 15:00N 55°06' E 014°41'0 0.0
2017-May-27 14:00N 55°06' E 014°41'0 0.0
2017-May-27 13:30N 55°06' E 014°41'0 0.0
2017-May-27 13:00N 55°06' E 014°41'0 0.0
2017-May-27 12:30N 55°06' E 014°41'0 0.0
2017-May-27 12:00N 55°06' E 014°41'0 0.0
2017-May-27 11:30N 55°06' E 014°41'0 0.0
2017-May-27 11:00N 55°06' E 014°41'0 0.0
2017-May-27 10:30N 55°06' E 014°41'0 0.0
2017-May-27 10:00N 55°06' E 014°41'0 0.0
2017-May-27 09:30N 55°06' E 014°41'0 0.0
2017-May-27 09:00N 55°06' E 014°41'0 0.0
2017-May-27 08:30N 55°06' E 014°41'0 0.0
2017-May-27 08:00N 55°06' E 014°41'0 0.0
2017-May-27 07:30N 55°06' E 014°41'0 0.0
2017-May-27 07:00N 55°06' E 014°41'0 0.0
2017-May-27 06:30N 55°06' E 014°41'0 0.0
2017-May-27 06:01N 55°06' E 014°41'0 0.0
2017-May-27 05:30N 55°06' E 014°41'0 0.1
2017-May-27 05:00N 55°06' E 014°41'0 0.0
2017-May-27 04:30N 55°06' E 014°41'0 0.0
2017-May-27 04:00N 55°06' E 014°41'0 0.0
2017-May-27 03:30N 55°06' E 014°41'1 2.1
2017-May-27 03:00N 55°05' E 014°41'4 7.6
2017-May-27 02:30N 55°02' E 014°45'4 7.3
2017-May-27 02:00N 54°59' E 014°48'2 4.1
2017-May-27 01:30N 54°57' E 014°51'0 0.2
2017-May-27 01:00N 54°57' E 014°50'4 7.8
2017-May-27 00:30N 55°00' E 014°46'4 7.6
2017-May-27 00:00N 55°03' E 014°42'3 5.2
2017-May-26 23:30N 55°06' E 014°41'0 0.0
2017-May-26 23:00N 55°06' E 014°41'0 0.0
2017-May-26 22:30N 55°06' E 014°41'0 0.0
2017-May-26 22:00N 55°06' E 014°41'0 0.2
2017-May-26 21:30N 55°06' E 014°41'3 6.9
2017-May-26 21:00N 55°03' E 014°43'4 7.5
2017-May-26 20:30N 54°59' E 014°47'4 7.2
2017-May-26 20:00N 54°56' E 014°50'0 0.5
2017-May-26 19:30N 54°56' E 014°50'0 0.0
2017-May-26 19:00N 54°56' E 014°50'2 4.3
2017-May-26 18:30N 54°58' E 014°48'4 7.8
2017-May-26 18:00N 55°01' E 014°44'4 7.7
2017-May-26 17:30N 55°05' E 014°41'1 2.4
2017-May-26 17:00N 55°06' E 014°41'0 0.0
2017-May-26 16:30N 55°06' E 014°41'0 0.0
2017-May-26 16:00N 55°06' E 014°41'0 0.0
2017-May-26 15:30N 55°06' E 014°41'1 1.2
2017-May-26 15:00N 55°05' E 014°41'3 5.6
2017-May-26 14:30N 55°03' E 014°43'7 6.8
2017-May-26 13:30N 54°57' E 014°49'1 1.9
2017-May-26 13:00N 54°56' E 014°50'0 0.0
2017-May-26 12:30N 54°56' E 014°50'2 4.5
2017-May-26 12:00N 54°58' E 014°48'4 8.1
2017-May-26 11:30N 55°02' E 014°44'4 8.2
2017-May-26 11:00N 55°05' E 014°41'1 1.5
2017-May-26 10:30N 55°06' E 014°41'0 0.0
2017-May-26 10:00N 55°06' E 014°41'0 0.0
2017-May-26 09:30N 55°06' E 014°41'0 0.0
2017-May-26 09:01N 55°06' E 014°41'3 5.9
2017-May-26 08:30N 55°03' E 014°42'4 7.1
2017-May-26 08:00N 54°60' E 014°45'3 7.0
2017-May-26 07:30N 54°57' E 014°49'1 2.2
2017-May-26 07:00N 54°56' E 014°50'0 0.0
2017-May-26 06:30N 54°56' E 014°50'3 5.1
2017-May-26 06:00N 54°58' E 014°48'4 7.6
2017-May-26 05:30N 55°01' E 014°44'4 7.8
2017-May-26 05:00N 55°05' E 014°41'1 1.9
2017-May-26 04:30N 55°06' E 014°41'0 0.0
2017-May-26 04:00N 55°06' E 014°41'0 0.0
2017-May-26 03:30N 55°06' E 014°41'0 0.0
2017-May-26 03:00N 55°06' E 014°41'2 3.5
2017-May-26 02:30N 55°04' E 014°42'3 6.7
2017-May-26 02:00N 55°01' E 014°45'3 6.6
2017-May-26 01:30N 54°59' E 014°48'2 4.1
2017-May-26 01:00N 54°57' E 014°50'0 0.0
2017-May-26 00:30N 54°57' E 014°51'3 5.3
2017-May-26 00:00N 54°59' E 014°48'4 8.0
2017-May-25 23:30N 55°02' E 014°43'4 7.2
2017-May-25 23:00N 55°06' E 014°41'0 0.4
2017-May-25 22:30N 55°06' E 014°41'0 0.0
2017-May-25 22:00N 55°06' E 014°41'0 0.0
2017-May-25 21:30N 55°06' E 014°41'1 1.2
2017-May-25 21:01N 55°05' E 014°41'3 5.9
2017-May-25 20:30N 55°03' E 014°41'0 0.8
2017-May-25 20:00N 55°02' E 014°41'0 0.0
2017-May-25 19:30N 55°02' E 014°41'0 0.0
2017-May-25 19:00N 55°02' E 014°41'0 0.0
2017-May-25 18:30N 55°02' E 014°41'0 0.0
2017-May-25 18:01N 55°02' E 014°41'0 0.0
2017-May-25 17:30N 55°02' E 014°41'1 1.2
2017-May-25 17:00N 55°03' E 014°41'3 6.5
2017-May-25 16:30N 55°06' E 014°41'0 0.0
2017-May-25 16:00N 55°06' E 014°41'0 0.0
2017-May-25 15:30N 55°06' E 014°41'0 0.0
2017-May-25 15:00N 55°06' E 014°41'2 2.0
2017-May-25 14:00N 55°04' E 014°41'2 3.7
2017-May-25 13:30N 55°02' E 014°41'0 0.0
2017-May-25 13:00N 55°02' E 014°41'0 0.0
2017-May-25 12:30N 55°02' E 014°41'0 0.0
2017-May-25 12:00N 55°02' E 014°41'0 0.0
2017-May-25 11:30N 55°02' E 014°41'1 1.5
2017-May-25 11:00N 55°03' E 014°41'3 6.2
2017-May-25 10:30N 55°06' E 014°41'0 0.0
2017-May-25 10:00N 55°06' E 014°41'0 0.0
2017-May-25 09:30N 55°06' E 014°41'0 0.0
2017-May-25 09:00N 55°06' E 014°41'1 2.8
2017-May-25 08:30N 55°05' E 014°41'2 5.0
2017-May-25 08:00N 55°02' E 014°41'0 0.0
2017-May-25 07:30N 55°02' E 014°41'0 0.0
2017-May-25 07:00N 55°02' E 014°41'0 0.0
2017-May-25 06:30N 55°02' E 014°41'0 0.0
2017-May-25 06:01N 55°02' E 014°41'0 0.0
2017-May-25 05:30N 55°02' E 014°41'3 5.6
2017-May-25 05:00N 55°05' E 014°41'1 2.2
2017-May-25 04:30N 55°06' E 014°41'0 0.0
2017-May-25 04:00N 55°06' E 014°41'0 0.0
2017-May-25 03:30N 55°06' E 014°41'0 0.6
2017-May-25 03:01N 55°06' E 014°41'3 6.5
2017-May-25 02:30N 55°02' E 014°41'0 0.6
2017-May-25 02:00N 55°02' E 014°41'0 0.0
2017-May-25 01:30N 55°02' E 014°41'0 0.0
2017-May-25 01:01N 55°02' E 014°41'0 0.0
2017-May-25 00:30N 55°02' E 014°41'0 0.0
2017-May-25 00:00N 55°02' E 014°41'0 0.0
2017-May-24 23:30N 55°02' E 014°41'0 0.0
2017-May-24 23:00N 55°02' E 014°41'3 5.8
2017-May-24 22:30N 55°05' E 014°41'1 2.0
2017-May-24 22:00N 55°06' E 014°41'0 0.0
2017-May-24 21:30N 55°06' E 014°41'0 0.0
2017-May-24 21:00N 55°06' E 014°41'0 0.0
2017-May-24 20:30N 55°06' E 014°41'3 5.2
2017-May-24 20:00N 55°03' E 014°41'1 2.4
2017-May-24 19:30N 55°02' E 014°41'0 0.0
2017-May-24 19:00N 55°02' E 014°41'0 0.0
2017-May-24 18:30N 55°02' E 014°41'0 0.0
2017-May-24 18:00N 55°02' E 014°41'0 0.0
2017-May-24 17:30N 55°02' E 014°41'0 0.0
2017-May-24 17:00N 55°02' E 014°41'4 7.1
2017-May-24 16:30N 55°06' E 014°41'0 0.6
2017-May-24 16:00N 55°06' E 014°41'0 0.0
2017-May-24 15:30N 55°06' E 014°41'0 0.0
2017-May-24 15:01N 55°06' E 014°41'0 0.0
2017-May-24 14:30N 55°06' E 014°41'4 3.8
2017-May-24 13:30N 55°02' E 014°41'0 0.2
2017-May-24 13:00N 55°02' E 014°41'0 0.0
2017-May-24 12:30N 55°02' E 014°41'0 0.0
2017-May-24 12:00N 55°02' E 014°41'0 0.0
2017-May-24 11:30N 55°02' E 014°41'0 0.0
2017-May-24 11:00N 55°02' E 014°41'0 0.0
2017-May-24 10:30N 55°02' E 014°41'3 5.0
2017-May-24 10:00N 55°05' E 014°41'1 2.7
2017-May-24 09:30N 55°06' E 014°41'0 0.0
2017-May-24 09:00N 55°06' E 014°41'0 0.0
2017-May-24 08:30N 55°06' E 014°41'0 0.0
2017-May-24 08:00N 55°06' E 014°41'2 4.0
2017-May-24 07:30N 55°04' E 014°41'2 3.6
2017-May-24 07:00N 55°02' E 014°41'0 0.0
2017-May-24 06:30N 55°02' E 014°41'0 0.0
2017-May-24 06:00N 55°02' E 014°41'0 0.0
2017-May-24 05:30N 55°02' E 014°41'0 0.0
2017-May-24 05:00N 55°02' E 014°41'0 0.0
2017-May-24 04:30N 55°02' E 014°41'3 6.6
2017-May-24 04:00N 55°05' E 014°41'1 1.2
2017-May-24 03:30N 55°06' E 014°41'0 0.0
2017-May-24 03:00N 55°06' E 014°41'0 0.0
2017-May-24 02:30N 55°06' E 014°41'0 0.0
2017-May-24 02:00N 55°06' E 014°41'3 6.0
2017-May-24 01:30N 55°03' E 014°41'1 1.6
2017-May-24 01:00N 55°02' E 014°41'0 0.0
2017-May-24 00:30N 55°02' E 014°41'0 0.0
2017-May-24 00:00N 55°02' E 014°41'0 0.0
2017-May-23 23:30N 55°02' E 014°41'0 0.0
2017-May-23 23:00N 55°02' E 014°41'0 0.0
2017-May-23 22:31N 55°02' E 014°41'3 6.8
2017-May-23 22:01N 55°06' E 014°41'1 1.1
2017-May-23 21:30N 55°06' E 014°41'0 0.0
2017-May-23 21:00N 55°06' E 014°41'0 0.0
2017-May-23 20:30N 55°06' E 014°41'0 0.1
2017-May-23 20:00N 55°06' E 014°41'4 7.1
2017-May-23 19:30N 55°02' E 014°41'0 0.5
2017-May-23 19:01N 55°02' E 014°41'0 0.1
2017-May-23 18:30N 55°02' E 014°41'0 0.0
2017-May-23 18:00N 55°02' E 014°41'0 0.0
2017-May-23 17:30N 55°02' E 014°41'0 0.0
2017-May-23 17:00N 55°02' E 014°41'0 0.0
2017-May-23 16:30N 55°02' E 014°41'0 0.0
2017-May-23 16:00N 55°02' E 014°41'1 2.2
2017-May-23 15:30N 55°03' E 014°41'3 5.4
2017-May-23 15:00N 55°06' E 014°41'0 0.0
2017-May-23 14:30N 55°06' E 014°41'0 0.0
2017-May-23 13:30N 55°06' E 014°41'2 3.9
2017-May-23 13:00N 55°04' E 014°41'2 3.8
2017-May-23 12:30N 55°02' E 014°41'0 0.0
2017-May-23 12:00N 55°02' E 014°41'0 0.0
2017-May-23 11:30N 55°02' E 014°41'0 0.1
2017-May-23 11:00N 55°02' E 014°41'0 0.0
2017-May-23 10:30N 55°02' E 014°41'0 0.0
2017-May-23 10:00N 55°02' E 014°41'0 0.0
2017-May-23 09:30N 55°02' E 014°41'0 0.0
2017-May-23 09:00N 55°02' E 014°41'1 1.5
2017-May-23 08:30N 55°03' E 014°41'3 6.2
2017-May-23 08:00N 55°06' E 014°41'0 0.0
2017-May-23 07:30N 55°06' E 014°41'0 0.0
2017-May-23 07:00N 55°06' E 014°41'0 0.0
2017-May-23 06:30N 55°06' E 014°41'2 3.0
2017-May-23 06:00N 55°04' E 014°41'2 4.6
2017-May-23 05:30N 55°02' E 014°41'0 0.0
2017-May-23 05:00N 55°02' E 014°41'0 0.0
2017-May-23 04:31N 55°02' E 014°41'0 0.0
2017-May-23 04:01N 55°02' E 014°41'0 0.0
2017-May-23 03:30N 55°02' E 014°41'0 0.0
2017-May-23 03:01N 55°02' E 014°41'0 0.0
2017-May-23 02:30N 55°02' E 014°41'0 0.0
2017-May-23 02:00N 55°02' E 014°41'0 0.4
2017-May-23 01:30N 55°02' E 014°41'3 6.9
2017-May-23 01:01N 55°06' E 014°41'0 0.3
2017-May-23 00:30N 55°06' E 014°41'0 0.0
2017-May-23 00:00N 55°06' E 014°41'0 0.0
2017-May-22 23:30N 55°06' E 014°41'1 1.2
2017-May-22 23:01N 55°05' E 014°41'3 6.6
2017-May-22 22:30N 55°02' E 014°41'0 0.0
2017-May-22 22:00N 55°02' E 014°41'0 0.0
2017-May-22 21:30N 55°02' E 014°41'0 0.0
2017-May-22 21:00N 55°02' E 014°41'0 0.0
2017-May-22 20:30N 55°02' E 014°41'0 0.0
2017-May-22 20:00N 55°02' E 014°41'1 2.7
2017-May-22 19:30N 55°04' E 014°41'2 4.9
2017-May-22 19:00N 55°06' E 014°41'0 0.0
2017-May-22 18:30N 55°06' E 014°41'0 0.0
2017-May-22 18:00N 55°06' E 014°41'0 0.0
2017-May-22 17:30N 55°06' E 014°41'1 2.1
2017-May-22 17:00N 55°05' E 014°41'3 5.7
2017-May-22 16:30N 55°02' E 014°41'0 0.0
2017-May-22 16:00N 55°02' E 014°41'0 0.0
2017-May-22 15:30N 55°02' E 014°41'0 0.0
2017-May-22 15:00N 55°02' E 014°41'0 0.0
2017-May-22 14:01N 55°02' E 014°41'3 6.9
2017-May-22 13:30N 55°06' E 014°41'1 1.0
2017-May-22 13:00N 55°06' E 014°41'0 0.0
2017-May-22 12:30N 55°06' E 014°41'0 0.0
2017-May-22 12:00N 55°06' E 014°41'1 1.5
2017-May-22 11:30N 55°05' E 014°41'3 6.3
2017-May-22 11:00N 55°02' E 014°41'0 0.0
2017-May-22 10:30N 55°02' E 014°41'0 0.0
2017-May-22 10:00N 55°02' E 014°41'0 0.0
2017-May-22 09:30N 55°02' E 014°41'0 0.0
2017-May-22 09:00N 55°02' E 014°41'0 0.0
2017-May-22 08:31N 55°02' E 014°41'0 0.1
2017-May-22 08:01N 55°02' E 014°41'0 0.0
2017-May-22 07:30N 55°02' E 014°41'3 5.9
2017-May-22 07:00N 55°05' E 014°41'1 1.9
2017-May-22 06:30N 55°06' E 014°41'0 0.0
2017-May-22 06:01N 55°06' E 014°41'0 0.0
2017-May-22 05:30N 55°06' E 014°41'0 0.0
2017-May-22 05:00N 55°06' E 014°41'0 0.0
2017-May-22 04:31N 55°06' E 014°41'0 0.0
2017-May-22 04:00N 55°06' E 014°41'0 0.0
2017-May-22 03:30N 55°06' E 014°41'0 0.0
2017-May-22 03:00N 55°06' E 014°41'0 0.0
2017-May-22 02:30N 55°06' E 014°41'0 0.0
2017-May-22 02:00N 55°06' E 014°41'0 0.0
2017-May-22 01:30N 55°06' E 014°41'0 0.0
2017-May-22 01:00N 55°06' E 014°41'0 0.0
2017-May-22 00:30N 55°06' E 014°41'0 0.0
2017-May-22 00:00N 55°06' E 014°41'0 0.0
2017-May-21 23:30N 55°06' E 014°41'0 0.0
2017-May-21 23:00N 55°06' E 014°41'0 0.0
2017-May-21 22:30N 55°06' E 014°41'0 0.0
2017-May-21 22:00N 55°06' E 014°41'0 0.0
2017-May-21 21:30N 55°06' E 014°41'0 0.0
2017-May-21 21:00N 55°06' E 014°41'0 0.0
2017-May-21 20:30N 55°06' E 014°41'0 0.0
2017-May-21 20:00N 55°06' E 014°41'0 0.0
2017-May-21 19:30N 55°06' E 014°41'0 0.0
2017-May-21 19:00N 55°06' E 014°41'0 0.0
2017-May-21 18:30N 55°06' E 014°41'0 0.0
2017-May-21 18:00N 55°06' E 014°41'0 0.0
2017-May-21 17:30N 55°06' E 014°41'0 0.0
2017-May-21 17:00N 55°06' E 014°41'0 0.0
2017-May-21 16:30N 55°06' E 014°41'0 0.0
2017-May-21 16:00N 55°06' E 014°41'0 0.0
2017-May-21 15:30N 55°06' E 014°41'0 0.0
2017-May-21 15:00N 55°06' E 014°41'0 0.0
2017-May-21 14:00N 55°06' E 014°41'0 0.0
2017-May-21 13:30N 55°06' E 014°41'0 0.0
2017-May-21 13:00N 55°06' E 014°41'0 0.0
2017-May-21 12:30N 55°06' E 014°41'0 0.0
2017-May-21 12:00N 55°06' E 014°41'0 0.0
2017-May-21 11:30N 55°06' E 014°41'0 0.0
2017-May-21 11:00N 55°06' E 014°41'0 0.0
2017-May-21 10:30N 55°06' E 014°41'0 0.0
2017-May-21 10:00N 55°06' E 014°41'0 0.0
2017-May-21 09:30N 55°06' E 014°41'0 0.0
2017-May-21 09:00N 55°06' E 014°41'0 0.0
2017-May-21 08:30N 55°06' E 014°41'0 0.0
2017-May-21 08:00N 55°06' E 014°41'0 0.0
2017-May-21 07:30N 55°06' E 014°41'0 0.0
2017-May-21 07:00N 55°06' E 014°41'0 0.0
2017-May-21 06:30N 55°06' E 014°41'0 0.0
2017-May-21 06:00N 55°06' E 014°41'0 0.0
2017-May-21 05:30N 55°06' E 014°41'0 0.0
2017-May-21 05:00N 55°06' E 014°41'0 0.0
2017-May-21 04:30N 55°06' E 014°41'0 0.0
2017-May-21 04:00N 55°06' E 014°41'0 0.0
2017-May-21 03:30N 55°06' E 014°41'0 0.0
2017-May-21 03:00N 55°06' E 014°41'0 0.0
2017-May-21 02:30N 55°06' E 014°41'0 0.0
2017-May-21 02:00N 55°06' E 014°41'0 0.0
2017-May-21 01:30N 55°06' E 014°41'0 0.0
2017-May-21 01:00N 55°06' E 014°41'0 0.0
2017-May-21 00:30N 55°06' E 014°41'0 0.0
2017-May-21 00:00N 55°06' E 014°41'0 0.0
2017-May-20 23:30N 55°06' E 014°41'0 0.0
2017-May-20 23:00N 55°06' E 014°41'0 0.0
2017-May-20 22:30N 55°06' E 014°41'0 0.0
2017-May-20 22:00N 55°06' E 014°41'0 0.0
2017-May-20 21:30N 55°06' E 014°41'0 0.0
2017-May-20 21:00N 55°06' E 014°41'0 0.0
2017-May-20 20:30N 55°06' E 014°41'0 0.0
2017-May-20 20:00N 55°06' E 014°41'0 0.0
2017-May-20 19:30N 55°06' E 014°41'0 0.0
2017-May-20 19:00N 55°06' E 014°41'0 0.0
2017-May-20 18:30N 55°06' E 014°41'0 0.0
2017-May-20 18:00N 55°06' E 014°41'0 0.0
2017-May-20 17:30N 55°06' E 014°41'0 0.0
2017-May-20 17:00N 55°06' E 014°41'0 0.0
2017-May-20 16:30N 55°06' E 014°41'0 0.0
2017-May-20 16:00N 55°06' E 014°41'0 0.0
2017-May-20 15:30N 55°06' E 014°41'0 0.0
2017-May-20 15:00N 55°06' E 014°41'0 0.0
2017-May-20 14:30N 55°06' E 014°41'0 0.0
2017-May-20 13:30N 55°06' E 014°41'0 0.0
2017-May-20 13:00N 55°06' E 014°41'0 0.0
2017-May-20 12:30N 55°06' E 014°41'0 0.0
2017-May-20 12:00N 55°06' E 014°41'0 0.0
2017-May-20 11:30N 55°06' E 014°41'0 0.0
2017-May-20 11:00N 55°06' E 014°41'0 0.0
2017-May-20 10:30N 55°06' E 014°41'0 0.0
2017-May-20 10:00N 55°06' E 014°41'0 0.0
2017-May-20 09:30N 55°06' E 014°41'0 0.0
2017-May-20 09:00N 55°06' E 014°41'0 0.0
2017-May-20 08:30N 55°06' E 014°41'0 0.0
2017-May-20 08:00N 55°06' E 014°41'0 0.0
2017-May-20 07:30N 55°06' E 014°41'0 0.0
2017-May-20 07:00N 55°06' E 014°41'0 0.0
2017-May-20 06:30N 55°06' E 014°41'0 0.0
2017-May-20 06:00N 55°06' E 014°41'0 0.0
2017-May-20 05:30N 55°06' E 014°41'0 0.0
2017-May-20 05:00N 55°06' E 014°41'3 5.4
2017-May-20 04:30N 55°03' E 014°40'1 1.9
2017-May-20 04:00N 55°02' E 014°41'0 0.0
2017-May-20 03:30N 55°02' E 014°41'0 0.0
2017-May-20 03:00N 55°02' E 014°41'0 0.0
2017-May-20 02:30N 55°02' E 014°41'0 0.0
2017-May-20 02:00N 55°02' E 014°41'0 0.0
2017-May-20 01:30N 55°02' E 014°41'0 0.0
2017-May-20 01:00N 55°02' E 014°41'0 0.0
2017-May-20 00:30N 55°02' E 014°41'0 0.0
2017-May-20 00:00N 55°02' E 014°41'1 1.6
2017-May-19 23:30N 55°03' E 014°41'3 5.7
2017-May-19 23:00N 55°06' E 014°41'0 0.0
2017-May-19 22:30N 55°06' E 014°41'0 0.0
2017-May-19 22:00N 55°06' E 014°41'0 0.0
2017-May-19 21:30N 55°06' E 014°41'0 0.8
2017-May-19 21:00N 55°06' E 014°41'3 6.8
2017-May-19 20:30N 55°02' E 014°41'0 0.0
2017-May-19 20:00N 55°02' E 014°41'0 0.0
2017-May-19 19:30N 55°02' E 014°41'0 0.0
2017-May-19 19:00N 55°02' E 014°41'0 0.0
2017-May-19 18:31N 55°02' E 014°41'0 0.1
2017-May-19 18:00N 55°02' E 014°41'0 0.0
2017-May-19 17:30N 55°02' E 014°41'0 0.0
2017-May-19 17:00N 55°02' E 014°41'0 0.0
2017-May-19 16:31N 55°02' E 014°41'3 6.6
2017-May-19 16:01N 55°06' E 014°41'0 0.9
2017-May-19 15:30N 55°06' E 014°41'0 0.0
2017-May-19 15:00N 55°06' E 014°41'0 0.0
2017-May-19 14:01N 55°06' E 014°41'0 0.0
2017-May-19 13:30N 55°06' E 014°41'1 2.0
2017-May-19 13:00N 55°05' E 014°41'3 5.3
2017-May-19 12:30N 55°02' E 014°41'0 0.0
2017-May-19 12:00N 55°02' E 014°41'0 0.1
2017-May-19 11:31N 55°02' E 014°41'0 0.0
2017-May-19 11:00N 55°02' E 014°41'0 0.0
2017-May-19 10:30N 55°02' E 014°41'0 0.0
2017-May-19 10:00N 55°02' E 014°41'0 0.0
2017-May-19 09:30N 55°02' E 014°41'2 3.7
2017-May-19 09:00N 55°04' E 014°41'2 3.7
2017-May-19 08:30N 55°06' E 014°41'0 0.0
2017-May-19 08:00N 55°06' E 014°41'0 0.0
2017-May-19 07:30N 55°06' E 014°41'0 0.0
2017-May-19 07:00N 55°06' E 014°41'0 0.0
2017-May-19 06:30N 55°06' E 014°41'0 0.0
2017-May-19 06:00N 55°06' E 014°41'0 0.0
2017-May-19 05:30N 55°06' E 014°41'0 0.1
2017-May-19 05:00N 55°06' E 014°41'0 0.0
2017-May-19 04:30N 55°06' E 014°41'0 0.0
2017-May-19 04:00N 55°06' E 014°41'0 0.0
2017-May-19 03:30N 55°06' E 014°41'0 0.0
2017-May-19 03:00N 55°06' E 014°41'0 0.0
2017-May-19 02:30N 55°06' E 014°41'0 0.2
2017-May-19 02:00N 55°06' E 014°41'0 0.0
2017-May-19 01:30N 55°06' E 014°41'0 0.0
2017-May-19 01:00N 55°06' E 014°41'0 0.0
2017-May-19 00:30N 55°06' E 014°41'3 5.3
2017-May-19 00:00N 55°03' E 014°40'1 2.1
2017-May-18 23:30N 55°02' E 014°41'0 0.0
2017-May-18 23:00N 55°02' E 014°41'0 0.0
2017-May-18 22:30N 55°02' E 014°41'0 0.0
2017-May-18 22:00N 55°02' E 014°41'0 0.0
2017-May-18 21:30N 55°02' E 014°41'0 0.0
2017-May-18 21:00N 55°02' E 014°41'0 0.0
2017-May-18 20:30N 55°02' E 014°41'0 0.0
2017-May-18 20:00N 55°02' E 014°41'0 0.0
2017-May-18 19:30N 55°02' E 014°41'1 1.5
2017-May-18 19:00N 55°03' E 014°41'3 5.9
2017-May-18 18:30N 55°06' E 014°41'0 0.0
2017-May-18 18:00N 55°06' E 014°41'0 0.0
2017-May-18 17:30N 55°06' E 014°41'0 0.0
2017-May-18 17:00N 55°06' E 014°41'2 4.2
2017-May-18 16:30N 55°04' E 014°40'1 2.6
2017-May-18 16:00N 55°03' E 014°41'0 0.0
2017-May-18 15:30N 55°03' E 014°41'0 0.0
2017-May-18 15:00N 55°03' E 014°41'0 0.3
2017-May-18 14:00N 55°03' E 014°41'3 6.1
2017-May-18 13:30N 55°06' E 014°41'0 0.0
2017-May-18 13:00N 55°06' E 014°41'0 0.0
2017-May-18 12:30N 55°06' E 014°41'0 0.0
2017-May-18 12:00N 55°06' E 014°41'0 0.3
2017-May-18 11:30N 55°06' E 014°41'3 6.8
2017-May-18 11:01N 55°03' E 014°38'3 5.3
2017-May-18 10:30N 55°01' E 014°36'0 0.0
2017-May-18 10:00N 55°01' E 014°35'0 0.0
2017-May-18 09:30N 55°01' E 014°35'2 4.5
2017-May-18 09:00N 55°03' E 014°37'4 7.8
2017-May-18 08:30N 55°06' E 014°41'0 0.2
2017-May-18 08:00N 55°06' E 014°41'0 0.0
2017-May-18 07:30N 55°06' E 014°41'0 0.0
2017-May-18 07:00N 55°06' E 014°41'0 0.0
2017-May-18 06:30N 55°06' E 014°41'1 1.7
2017-May-18 06:00N 55°05' E 014°40'3 5.3
2017-May-18 05:31N 55°03' E 014°41'0 0.0
2017-May-18 05:01N 55°03' E 014°41'0 0.0
2017-May-18 04:30N 55°03' E 014°41'0 0.0
2017-May-18 04:00N 55°03' E 014°41'0 0.0
2017-May-18 03:30N 55°03' E 014°41'0 0.0
2017-May-18 03:00N 55°03' E 014°41'0 0.1
2017-May-18 02:30N 55°03' E 014°41'0 0.1
2017-May-18 02:00N 55°03' E 014°41'0 0.0
2017-May-18 01:30N 55°03' E 014°41'0 0.0
2017-May-18 01:00N 55°03' E 014°41'2 3.6
2017-May-18 00:30N 55°04' E 014°41'2 3.2
2017-May-18 00:00N 55°06' E 014°41'0 0.0
2017-May-17 23:30N 55°06' E 014°41'0 0.0
2017-May-17 23:00N 55°06' E 014°41'0 0.0
2017-May-17 22:30N 55°06' E 014°41'  

Dump ship's entire track history